createdAt,value
2022-10-21T00:00:31.828Z,16.27
2022-10-21T00:02:58.651Z,16.20
2022-10-21T00:05:25.396Z,17.67
2022-10-21T00:07:52.256Z,16.20
2022-10-21T00:10:18.981Z,17.07
2022-10-21T00:12:45.905Z,16.53
2022-10-21T00:15:12.905Z,17.10
2022-10-21T00:17:43.042Z,16.87
2022-10-21T00:20:12.340Z,17.30
2022-10-21T00:22:39.669Z,16.33
2022-10-21T00:25:07.254Z,16.93
2022-10-21T00:27:34.133Z,16.57
2022-10-21T00:30:01.123Z,17.60
2022-10-21T00:32:27.869Z,18.00
2022-10-21T00:34:54.617Z,17.00
2022-10-21T00:37:21.329Z,16.37
2022-10-21T00:39:48.140Z,15.40
2022-10-21T00:42:18.158Z,15.87
2022-10-21T00:45:06.309Z,16.87
2022-10-21T00:47:55.977Z,16.33
2022-10-21T00:50:42.458Z,16.23
2022-10-21T00:53:13.546Z,15.33
2022-10-21T00:55:47.661Z,15.97
2022-10-21T00:58:16.449Z,16.90
2022-10-21T01:00:43.227Z,16.10
2022-10-21T01:03:10.183Z,17.30
2022-10-21T01:05:39.323Z,16.90
2022-10-21T01:08:06.330Z,16.60
2022-10-21T01:10:33.151Z,17.20
2022-10-21T01:13:55.709Z,16.27
2022-10-21T01:16:34.821Z,16.37
2022-10-21T01:19:18.648Z,16.80
2022-10-21T01:21:52.898Z,17.03
2022-10-21T01:24:31.920Z,16.70
2022-10-21T01:27:19.844Z,17.13
2022-10-21T01:30:07.954Z,17.10
2022-10-21T01:32:56.246Z,16.70
2022-10-21T01:35:26.241Z,16.53
2022-10-21T01:38:04.527Z,17.23
2022-10-21T01:40:56.058Z,16.83
2022-10-21T01:43:58.074Z,16.17
2022-10-21T01:46:33.512Z,15.90
2022-10-21T01:49:07.229Z,16.43
2022-10-21T01:51:39.128Z,16.10
2022-10-21T01:54:44.090Z,16.07
2022-10-21T01:57:15.034Z,15.07
2022-10-21T01:59:44.051Z,16.27
2022-10-21T02:02:15.913Z,16.57
2022-10-21T02:04:45.499Z,17.00
2022-10-21T02:07:12.231Z,16.13
2022-10-21T02:09:38.974Z,15.80
2022-10-21T02:12:07.592Z,15.90
2022-10-21T02:14:39.566Z,15.47
2022-10-21T02:17:08.839Z,16.30
2022-10-21T02:19:35.622Z,14.60
2022-10-21T02:22:06.254Z,16.47
2022-10-21T02:24:38.603Z,16.27
2022-10-21T02:27:05.672Z,16.87
2022-10-21T02:29:38.656Z,16.87
2022-10-21T02:32:25.652Z,17.23
2022-10-21T02:35:04.006Z,15.33
2022-10-21T02:38:07.650Z,16.07
2022-10-21T02:40:44.437Z,15.97
2022-10-21T02:43:17.442Z,15.57
2022-10-21T02:45:47.027Z,15.50
2022-10-21T02:48:13.951Z,15.33
2022-10-21T02:50:40.824Z,15.40
2022-10-21T02:53:10.201Z,14.67
2022-10-21T02:55:36.946Z,15.60
2022-10-21T02:58:03.810Z,15.63
2022-10-21T03:00:32.900Z,16.17
2022-10-21T03:03:00.397Z,15.43
2022-10-21T03:05:27.311Z,15.23
2022-10-21T03:07:54.201Z,14.27
2022-10-21T03:10:21.066Z,15.63
2022-10-21T03:12:49.606Z,14.30
2022-10-21T03:15:16.872Z,15.57
2022-10-21T03:17:43.845Z,14.37
2022-10-21T03:20:11.467Z,15.80
2022-10-21T03:22:38.237Z,16.23
2022-10-21T03:25:05.569Z,14.67
2022-10-21T03:27:32.854Z,15.43
2022-10-21T03:29:59.679Z,15.33
2022-10-21T03:32:26.478Z,13.93
2022-10-21T03:34:53.321Z,14.97
2022-10-21T03:37:20.063Z,15.03
2022-10-21T03:39:46.812Z,15.70
2022-10-21T03:42:13.710Z,14.57
2022-10-21T03:44:41.388Z,14.07
2022-10-21T03:47:08.549Z,14.57
2022-10-21T03:52:07.048Z,13.93
2022-10-21T03:54:33.826Z,13.50
2022-10-21T03:57:03.647Z,13.73
2022-10-21T03:59:30.428Z,13.17
2022-10-21T04:01:57.272Z,13.33
2022-10-21T04:04:24.044Z,12.53
2022-10-21T04:06:50.907Z,12.50
2022-10-21T04:09:17.695Z,11.90
2022-10-21T04:11:44.487Z,12.27
2022-10-21T04:14:14.512Z,12.50
2022-10-21T04:16:42.325Z,11.50
2022-10-21T04:19:12.915Z,13.47
2022-10-21T04:21:41.735Z,13.00
2022-10-21T04:24:08.549Z,12.53
2022-10-21T04:26:35.299Z,12.10
2022-10-21T04:29:02.042Z,13.53
2022-10-21T04:31:31.348Z,12.87
2022-10-21T04:33:59.162Z,12.20
2022-10-21T04:36:28.845Z,12.60
2022-10-21T04:38:55.713Z,12.70
2022-10-21T04:41:22.495Z,12.60
2022-10-21T04:43:49.290Z,12.90
2022-10-21T04:46:17.044Z,12.30
2022-10-21T04:48:44.218Z,12.47
2022-10-21T04:51:11.041Z,12.47
2022-10-21T04:53:37.948Z,13.60
2022-10-21T04:56:05.137Z,13.63
2022-10-21T04:58:31.862Z,12.63
2022-10-21T05:00:58.738Z,13.20
2022-10-21T05:03:25.555Z,13.07
2022-10-21T05:05:52.943Z,12.23
2022-10-21T05:08:20.840Z,13.93
2022-10-21T05:10:48.231Z,12.53
2022-10-21T05:13:15.541Z,13.23
2022-10-21T05:15:42.359Z,12.83
2022-10-21T05:18:09.124Z,12.80
2022-10-21T05:20:35.853Z,13.33
2022-10-21T05:23:02.586Z,13.50
2022-10-21T05:25:31.818Z,12.93
2022-10-21T05:28:01.296Z,13.50
2022-10-21T05:30:28.112Z,12.10
2022-10-21T05:32:54.860Z,13.53
2022-10-21T05:35:21.575Z,12.90
2022-10-21T05:37:48.283Z,13.67
2022-10-21T05:40:15.021Z,13.77
2022-10-21T05:42:41.760Z,13.50
2022-10-21T05:45:09.452Z,13.43
2022-10-21T05:47:36.301Z,13.43
2022-10-21T05:50:06.234Z,15.97
2022-10-21T05:52:33.101Z,14.50
2022-10-21T05:54:59.990Z,14.37
2022-10-21T05:57:26.738Z,14.10
2022-10-21T05:59:53.490Z,14.97
2022-10-21T06:02:20.252Z,14.07
2022-10-21T06:04:47.026Z,14.20
2022-10-21T06:07:13.717Z,14.70
2022-10-21T06:09:40.512Z,14.27
2022-10-21T06:12:07.298Z,13.73
2022-10-21T06:14:36.341Z,14.57
2022-10-21T06:17:04.438Z,15.27
2022-10-21T06:19:31.537Z,14.83
2022-10-21T06:21:58.990Z,14.33
2022-10-21T06:24:25.943Z,14.63
2022-10-21T06:26:52.728Z,14.50
2022-10-21T06:29:19.633Z,14.27
2022-10-21T06:31:46.368Z,13.57
2022-10-21T06:34:13.199Z,14.10
2022-10-21T06:36:40.054Z,14.23
2022-10-21T06:39:08.030Z,14.07
2022-10-21T06:41:35.044Z,14.10
2022-10-21T06:44:01.888Z,14.27
2022-10-21T06:46:28.773Z,14.70
2022-10-21T06:48:56.108Z,13.73
2022-10-21T06:51:24.232Z,13.10
2022-10-21T06:53:56.931Z,13.07
2022-10-21T06:56:24.640Z,12.90
2022-10-21T06:58:51.961Z,14.33
2022-10-21T07:01:40.812Z,12.80
2022-10-21T07:04:10.990Z,12.80
2022-10-21T07:06:38.168Z,12.90
2022-10-21T07:09:06.839Z,12.53
2022-10-21T07:11:33.718Z,11.80
2022-10-21T07:14:01.477Z,13.00
2022-10-21T07:16:34.332Z,12.17
2022-10-21T07:19:01.028Z,13.07
2022-10-21T07:21:30.574Z,12.40
2022-10-21T07:23:59.467Z,12.60
2022-10-21T07:26:29.057Z,12.47
2022-10-21T07:28:58.298Z,12.57
2022-10-21T07:31:25.354Z,12.53
2022-10-21T07:33:52.208Z,12.50
2022-10-21T07:36:21.657Z,12.20
2022-10-21T07:38:49.789Z,12.40
2022-10-21T07:41:29.123Z,12.63
2022-10-21T07:43:55.943Z,12.17
2022-10-21T07:46:23.584Z,12.73
2022-10-21T07:48:52.672Z,12.27
2022-10-21T07:51:26.971Z,11.23
2022-10-21T07:53:58.814Z,12.33
2022-10-21T07:56:29.076Z,11.43
2022-10-21T07:58:56.384Z,12.10
2022-10-21T08:01:23.480Z,12.17
2022-10-21T08:03:53.188Z,12.40
2022-10-21T08:06:20.091Z,11.43
2022-10-21T08:08:47.185Z,12.47
2022-10-21T08:11:22.345Z,13.23
2022-10-21T08:13:49.242Z,11.83
2022-10-21T08:16:15.965Z,12.23
2022-10-21T08:18:42.749Z,11.37
2022-10-21T08:21:09.529Z,12.80
2022-10-21T08:23:37.191Z,10.35
2022-10-21T08:26:04.563Z,11.82
2022-10-21T08:28:31.874Z,10.63
2022-10-21T08:31:13.788Z,11.35
2022-10-21T08:33:41.058Z,11.43
2022-10-21T08:36:11.443Z,10.73
2022-10-21T08:38:38.164Z,12.40
2022-10-21T08:41:24.973Z,11.35
2022-10-21T08:43:54.291Z,10.18
2022-10-21T08:46:27.130Z,11.38
2022-10-21T08:49:00.349Z,11.27
2022-10-21T08:51:32.928Z,10.02
2022-10-21T08:54:05.296Z,10.80
2022-10-21T08:56:32.624Z,10.38
2022-10-21T08:58:59.470Z,10.27
2022-10-21T09:01:35.418Z,10.10
2022-10-21T09:04:15.240Z,10.30
2022-10-21T09:06:57.718Z,10.68
2022-10-21T09:09:38.544Z,9.80
2022-10-21T09:12:21.555Z,10.27
2022-10-21T09:15:00.424Z,10.32
2022-10-21T09:17:33.101Z,10.73
2022-10-21T09:20:45.011Z,10.32
2022-10-21T09:23:36.415Z,9.63
2022-10-21T09:26:04.821Z,9.57
2022-10-21T09:28:32.651Z,10.00
2022-10-21T09:31:02.581Z,9.02
2022-10-21T09:33:34.637Z,9.52
2022-10-21T09:36:34.938Z,9.88
2022-10-21T09:39:30.232Z,9.00
2022-10-21T09:42:01.665Z,8.25
2022-10-21T09:44:33.291Z,8.32
2022-10-21T09:47:00.049Z,8.75
2022-10-21T09:50:05.423Z,9.45
2022-10-21T09:52:29.197Z,8.00
2022-10-21T09:54:56.794Z,8.20
2022-10-21T09:57:45.633Z,7.60
2022-10-21T10:00:13.970Z,8.05
2022-10-21T10:02:45.392Z,7.65
2022-10-21T10:05:33.821Z,7.45
2022-10-21T10:08:00.648Z,7.13
2022-10-21T10:10:33.861Z,8.00
2022-10-21T10:13:01.059Z,6.95
2022-10-21T10:15:36.335Z,7.25
2022-10-21T10:18:04.535Z,7.05
2022-10-21T10:20:31.357Z,7.05
2022-10-21T10:23:01.216Z,8.05
2022-10-21T10:25:32.921Z,6.90
2022-10-21T10:28:24.926Z,6.95
2022-10-21T10:30:57.062Z,7.72
2022-10-21T10:33:31.199Z,6.55
2022-10-21T10:35:57.976Z,7.00
2022-10-21T10:38:37.796Z,7.00
2022-10-21T10:41:04.593Z,6.60
2022-10-21T10:43:33.930Z,6.75
2022-10-21T10:46:03.964Z,7.20
2022-10-21T10:48:36.493Z,6.47
2022-10-21T10:51:22.536Z,6.72
2022-10-21T10:54:01.607Z,6.28
2022-10-21T10:56:41.298Z,6.40
2022-10-21T10:59:18.355Z,6.53
2022-10-21T11:02:12.140Z,6.80
2022-10-21T11:05:12.930Z,6.88
2022-10-21T11:07:55.073Z,6.50
2022-10-21T11:10:30.885Z,6.13
2022-10-21T11:13:03.109Z,5.75
2022-10-21T11:15:50.596Z,6.95
2022-10-21T11:18:37.572Z,6.32
2022-10-21T11:21:32.203Z,6.45
2022-10-21T11:24:46.297Z,6.55
2022-10-21T11:27:34.476Z,7.10
2022-10-21T11:30:18.657Z,7.53
2022-10-21T11:33:09.678Z,7.75
2022-10-21T11:36:23.979Z,8.02
2022-10-21T11:39:26.508Z,7.50
2022-10-21T11:42:05.162Z,7.53
2022-10-21T11:44:44.040Z,7.00
2022-10-21T11:47:27.169Z,7.05
2022-10-21T11:50:21.388Z,7.72
2022-10-21T11:53:14.149Z,8.07
2022-10-21T11:55:55.998Z,7.65
2022-10-21T11:58:44.267Z,7.40
2022-10-21T12:01:15.008Z,6.88
2022-10-21T12:04:18.573Z,7.53
2022-10-21T12:07:14.834Z,7.50
2022-10-21T12:09:52.593Z,6.82
2022-10-21T12:12:27.068Z,6.97
2022-10-21T12:14:57.979Z,6.90
2022-10-21T12:17:25.900Z,6.85
2022-10-21T12:20:07.334Z,6.47
2022-10-21T12:22:35.673Z,6.90
2022-10-21T12:25:14.681Z,5.57
2022-10-21T12:27:52.548Z,5.47
2022-10-21T12:30:53.873Z,6.43
2022-10-21T12:33:37.662Z,5.60
2022-10-21T12:36:19.403Z,5.45
2022-10-21T12:38:54.163Z,5.70
2022-10-21T12:41:23.644Z,5.95
2022-10-21T12:44:02.956Z,5.85
2022-10-21T12:46:45.092Z,5.53
2022-10-21T12:49:26.016Z,5.40
2022-10-21T12:51:58.522Z,5.55
2022-10-21T12:54:35.714Z,5.50
2022-10-21T12:57:09.501Z,5.40
2022-10-21T12:59:43.596Z,5.50
2022-10-21T13:02:21.530Z,6.03
2022-10-21T13:04:54.205Z,6.05
2022-10-21T13:07:20.987Z,6.10
2022-10-21T13:09:59.569Z,5.72
2022-10-21T13:12:30.269Z,6.05
2022-10-21T13:14:57.064Z,6.47
2022-10-21T13:17:23.929Z,6.32
2022-10-21T13:20:19.386Z,6.38
2022-10-21T13:22:47.185Z,6.15
2022-10-21T13:25:24.263Z,6.10
2022-10-21T13:28:06.753Z,6.38
2022-10-21T13:30:39.723Z,6.25
2022-10-21T13:33:18.100Z,6.30
2022-10-21T13:35:48.082Z,5.85
2022-10-21T13:38:24.536Z,5.63
2022-10-21T13:40:54.724Z,6.05
2022-10-21T13:43:28.904Z,6.05
2022-10-21T13:46:32.736Z,6.20
2022-10-21T13:49:00.735Z,6.65
2022-10-21T13:51:33.820Z,6.47
2022-10-21T13:54:11.516Z,6.03
2022-10-21T13:56:39.901Z,6.25
2022-10-21T13:59:20.800Z,6.45
2022-10-21T14:01:56.527Z,6.70
2022-10-21T14:04:26.793Z,6.07
2022-10-21T14:07:05.441Z,6.75
2022-10-21T14:09:35.331Z,6.30
2022-10-21T14:12:30.555Z,6.60
2022-10-21T14:15:04.862Z,6.43
2022-10-21T14:17:32.893Z,6.45
2022-10-21T14:20:12.691Z,5.95
2022-10-21T14:22:42.181Z,5.45
2022-10-21T14:25:15.918Z,5.65
2022-10-21T14:27:46.942Z,5.57
2022-10-21T14:30:21.690Z,6.80
2022-10-21T14:32:49.671Z,5.97
2022-10-21T14:35:16.417Z,5.82
2022-10-21T14:37:46.369Z,6.00
2022-10-21T14:40:23.390Z,5.75
2022-10-21T14:42:53.276Z,6.10
2022-10-21T14:45:30.675Z,6.05
2022-10-21T14:48:10.968Z,6.45
2022-10-21T14:50:39.903Z,6.45
2022-10-21T14:53:18.806Z,6.60
2022-10-21T14:55:48.368Z,5.97
2022-10-21T14:58:22.996Z,6.70
2022-10-21T15:01:23.720Z,6.60
2022-10-21T15:03:57.028Z,5.90
2022-10-21T15:06:29.617Z,5.75
2022-10-21T15:08:59.526Z,6.28
2022-10-21T15:11:26.233Z,6.32
2022-10-21T15:13:57.051Z,6.00
2022-10-21T15:16:28.238Z,5.90
2022-10-21T15:18:55.170Z,5.32
2022-10-21T15:21:34.818Z,6.07
2022-10-21T15:24:02.816Z,5.70
2022-10-21T15:26:32.685Z,6.45
2022-10-21T15:28:59.922Z,5.95
2022-10-21T15:31:28.652Z,6.60
2022-10-21T15:33:57.331Z,5.97
2022-10-21T15:36:24.602Z,5.57
2022-10-21T15:38:51.423Z,5.72
2022-10-21T15:41:23.466Z,5.93
2022-10-21T15:43:56.365Z,5.90
2022-10-21T15:46:24.743Z,5.65
2022-10-21T15:48:51.802Z,6.35
2022-10-21T15:51:19.009Z,5.97
2022-10-21T15:53:45.906Z,5.40
2022-10-21T15:56:13.861Z,5.30
2022-10-21T15:58:40.947Z,6.22
2022-10-21T16:01:18.031Z,6.40
2022-10-21T16:03:45.488Z,5.75
2022-10-21T16:06:18.745Z,7.05
2022-10-21T16:08:46.160Z,5.93
2022-10-21T16:11:18.960Z,5.70
2022-10-21T16:13:52.799Z,6.47
2022-10-21T16:16:25.007Z,5.82
2022-10-21T16:18:52.895Z,6.05
2022-10-21T16:21:21.592Z,6.10
2022-10-21T16:23:49.046Z,5.75
2022-10-21T16:26:23.233Z,5.72
2022-10-21T16:28:51.305Z,6.38
2022-10-21T16:31:18.558Z,5.68
2022-10-21T16:33:45.688Z,6.05
2022-10-21T16:36:37.774Z,6.13
2022-10-21T16:39:13.687Z,6.43
2022-10-21T16:41:41.370Z,6.28
2022-10-21T16:44:08.085Z,6.72
2022-10-21T16:46:47.845Z,6.63
2022-10-21T16:49:18.422Z,6.55
2022-10-21T16:51:48.692Z,6.35
2022-10-21T16:54:16.349Z,6.03
2022-10-21T16:56:43.189Z,6.15
2022-10-21T16:59:10.007Z,5.95
2022-10-21T17:01:37.318Z,5.82
2022-10-21T17:04:07.190Z,6.38
2022-10-21T17:06:34.011Z,6.60
2022-10-21T17:09:00.934Z,6.20
2022-10-21T17:11:47.948Z,6.60
2022-10-21T17:14:18.768Z,6.22
2022-10-21T17:16:46.049Z,6.22
2022-10-21T17:19:13.737Z,6.28
2022-10-21T17:21:41.448Z,6.65
2022-10-21T17:24:08.357Z,6.18
2022-10-21T17:26:35.193Z,5.93
2022-10-21T17:29:01.974Z,5.72
2022-10-21T17:31:30.551Z,6.32
2022-10-21T17:33:59.993Z,6.32
2022-10-21T17:36:27.050Z,6.30
2022-10-21T17:38:53.922Z,5.95
2022-10-21T17:41:20.734Z,6.05
2022-10-21T17:43:48.081Z,6.97
2022-10-21T17:46:20.342Z,6.60
2022-10-21T17:48:52.024Z,6.70
2022-10-21T17:51:22.419Z,6.43
2022-10-21T17:53:51.011Z,6.35
2022-10-21T17:56:18.048Z,5.93
2022-10-21T17:58:45.797Z,6.28
2022-10-21T18:01:13.831Z,6.32
2022-10-21T18:03:40.757Z,5.63
2022-10-21T18:06:10.627Z,5.78
2022-10-21T18:08:37.702Z,5.68
2022-10-21T18:11:08.734Z,5.80
2022-10-21T18:13:36.183Z,6.18
2022-10-21T18:16:09.836Z,5.50
2022-10-21T18:18:37.291Z,5.32
2022-10-21T18:21:06.445Z,5.75
2022-10-21T18:23:34.112Z,5.53
2022-10-21T18:26:05.916Z,5.53
2022-10-21T18:28:34.311Z,5.47
2022-10-21T18:31:02.019Z,5.95
2022-10-21T18:33:29.279Z,5.53
2022-10-21T18:35:56.966Z,5.20
2022-10-21T18:38:23.816Z,5.60
2022-10-21T18:40:56.358Z,6.10
2022-10-21T18:43:29.199Z,6.30
2022-10-21T18:45:56.865Z,6.38
2022-10-21T18:48:24.183Z,6.18
2022-10-21T18:50:50.919Z,5.75
2022-10-21T18:53:17.716Z,5.13
2022-10-21T18:55:45.752Z,5.90
2022-10-21T18:58:12.751Z,5.93
2022-10-21T19:00:39.610Z,5.10
2022-10-21T19:03:06.396Z,5.72
2022-10-21T19:05:33.121Z,6.25
2022-10-21T19:07:59.962Z,6.18
2022-10-21T19:10:26.823Z,6.50
2022-10-21T19:12:53.533Z,6.60
2022-10-21T19:15:21.248Z,6.50
2022-10-21T19:17:48.121Z,6.63
2022-10-21T19:20:15.312Z,7.13
2022-10-21T19:22:42.198Z,6.63
2022-10-21T19:25:09.338Z,6.45
2022-10-21T19:27:36.067Z,6.72
2022-10-21T19:30:03.027Z,6.03
2022-10-21T19:32:29.929Z,6.32
2022-10-21T19:34:56.683Z,6.50
2022-10-21T19:37:23.447Z,6.63
2022-10-21T19:39:50.393Z,6.57
2022-10-21T19:42:17.173Z,6.95
2022-10-21T19:44:44.067Z,6.78
2022-10-21T19:47:10.821Z,6.65
2022-10-21T19:49:37.652Z,6.82
2022-10-21T19:52:05.325Z,6.70
2022-10-21T19:54:32.220Z,6.45
2022-10-21T19:56:58.996Z,6.55
2022-10-21T19:59:25.849Z,7.95
2022-10-21T20:01:52.619Z,7.45
2022-10-21T20:04:19.515Z,7.65
2022-10-21T20:06:47.796Z,8.50
2022-10-21T20:09:15.181Z,7.78
2022-10-21T20:11:42.430Z,8.20
2022-10-21T20:14:12.938Z,8.48
2022-10-21T20:16:42.320Z,7.85
2022-10-21T20:19:12.353Z,7.22
2022-10-21T20:21:39.127Z,7.18
2022-10-21T20:24:06.149Z,7.60
2022-10-21T20:26:33.301Z,7.05
2022-10-21T20:29:01.960Z,7.88
2022-10-21T20:31:29.651Z,7.38
2022-10-21T20:33:57.002Z,7.72
2022-10-21T20:36:30.292Z,8.40
2022-10-21T20:38:59.070Z,7.68
2022-10-21T20:41:34.409Z,7.13
2022-10-21T20:44:02.731Z,7.67
2022-10-21T20:46:34.740Z,7.05
2022-10-21T20:49:02.067Z,7.40
2022-10-21T20:51:29.690Z,8.00
2022-10-21T20:54:00.294Z,7.70
2022-10-21T20:56:32.075Z,7.78
2022-10-21T20:58:59.401Z,7.78
2022-10-21T21:01:32.423Z,8.20
2022-10-21T21:04:06.157Z,8.00
2022-10-21T21:06:44.842Z,7.63
2022-10-21T21:12:00.424Z,7.55
2022-10-21T21:14:27.204Z,8.18
2022-10-21T21:16:54.929Z,7.43
2022-10-21T21:19:21.752Z,7.72
2022-10-21T21:21:48.972Z,7.97
2022-10-21T21:24:15.758Z,7.50
2022-10-21T21:26:42.753Z,7.77
2022-10-21T21:29:10.278Z,8.37
2022-10-21T21:31:39.106Z,7.90
2022-10-21T21:34:07.112Z,8.10
2022-10-21T21:36:34.248Z,8.70
2022-10-21T21:39:01.098Z,8.40
2022-10-21T21:41:28.022Z,8.27
2022-10-21T21:43:56.715Z,7.47
2022-10-21T21:46:24.299Z,7.57
2022-10-21T21:49:02.285Z,7.47
2022-10-21T21:51:32.582Z,8.40
2022-10-21T21:54:00.013Z,8.05
2022-10-21T21:56:28.110Z,8.03
2022-10-21T21:58:56.117Z,8.23
2022-10-21T22:01:25.390Z,8.37
2022-10-21T22:03:52.775Z,9.27
2022-10-21T22:06:21.209Z,8.97
2022-10-21T22:08:49.086Z,9.07
2022-10-21T22:11:21.776Z,8.23
2022-10-21T22:13:49.522Z,8.40
2022-10-21T22:16:16.798Z,8.03
2022-10-21T22:18:43.948Z,8.90
2022-10-21T22:21:14.185Z,8.73
2022-10-21T22:23:41.458Z,8.77
2022-10-21T22:26:09.230Z,7.83
2022-10-21T22:28:36.178Z,8.83
2022-10-21T22:31:09.576Z,8.57
2022-10-21T22:33:37.725Z,8.60
2022-10-21T22:36:05.715Z,8.43
2022-10-21T22:38:32.756Z,7.87
2022-10-21T22:41:00.961Z,8.50
2022-10-21T22:43:28.243Z,8.25
2022-10-21T22:46:05.390Z,8.40
2022-10-21T22:48:42.504Z,7.80
2022-10-21T22:51:09.229Z,8.03
2022-10-21T22:53:36.606Z,7.57
2022-10-21T22:56:03.829Z,8.10
2022-10-21T22:58:30.735Z,7.83
2022-10-21T23:00:58.256Z,8.60
2022-10-21T23:03:25.203Z,8.43
2022-10-21T23:05:51.974Z,7.67
2022-10-21T23:08:21.909Z,7.50
2022-10-21T23:10:49.107Z,7.30
2022-10-21T23:13:16.416Z,7.77
2022-10-21T23:15:43.733Z,7.40
2022-10-21T23:18:10.872Z,7.93
2022-10-21T23:20:37.661Z,8.00
2022-10-21T23:23:04.658Z,7.50
2022-10-21T23:25:31.643Z,7.43
2022-10-21T23:27:58.454Z,7.40
2022-10-21T23:30:25.326Z,8.63
2022-10-21T23:32:52.129Z,7.40
2022-10-21T23:35:19.785Z,7.87
2022-10-21T23:37:46.577Z,7.70
2022-10-21T23:40:13.537Z,7.70
2022-10-21T23:42:42.853Z,7.40
2022-10-21T23:45:11.403Z,7.40
2022-10-21T23:47:39.959Z,6.77
2022-10-21T23:50:08.229Z,7.73
2022-10-21T23:52:35.619Z,7.20
2022-10-21T23:55:02.486Z,7.07
2022-10-21T23:57:29.327Z,7.33
2022-10-21T23:59:56.108Z,7.43
